createdAt,value
2018-06-07T00:02:33.415Z,19.76
2018-06-07T00:03:17.568Z,19.76
2018-06-07T00:04:17.518Z,19.76
2018-06-07T00:05:17.503Z,19.76
2018-06-07T00:06:17.472Z,19.76
2018-06-07T00:07:19.620Z,19.79
2018-06-07T00:08:17.441Z,19.76
2018-06-07T00:09:17.471Z,19.78
2018-06-07T00:10:17.388Z,19.71
2018-06-07T00:11:17.376Z,19.71
2018-06-07T00:12:17.358Z,19.64
2018-06-07T00:13:17.320Z,19.70
2018-06-07T00:14:17.304Z,19.68
2018-06-07T00:15:17.278Z,19.67
2018-06-07T00:16:17.278Z,19.71
2018-06-07T00:17:17.237Z,19.67
2018-06-07T00:18:17.211Z,19.71
2018-06-07T00:19:17.191Z,19.62
2018-06-07T00:20:17.168Z,19.75
2018-06-07T00:21:17.159Z,19.60
2018-06-07T00:22:17.143Z,19.68
2018-06-07T00:23:17.112Z,19.64
2018-06-07T00:24:17.094Z,19.65
2018-06-07T00:25:17.080Z,19.58
2018-06-07T00:26:17.071Z,19.58
2018-06-07T00:27:17.032Z,19.60
2018-06-07T00:28:17.018Z,19.61
2018-06-07T00:29:17.025Z,19.55
2018-06-07T00:30:16.986Z,19.58
2018-06-07T00:31:16.933Z,19.58
2018-06-07T00:32:18.027Z,19.47
2018-06-07T00:33:16.904Z,19.46
2018-06-07T00:34:16.883Z,19.46
2018-06-07T00:35:16.875Z,19.49
2018-06-07T00:36:16.957Z,19.43
2018-06-07T00:37:16.807Z,19.43
2018-06-07T00:38:16.861Z,19.46
2018-06-07T00:39:16.812Z,19.46
2018-06-07T00:40:16.877Z,19.46
2018-06-07T00:41:16.723Z,19.39
2018-06-07T00:42:16.786Z,19.47
2018-06-07T00:43:16.694Z,19.40
2018-06-07T00:44:16.698Z,19.42
2018-06-07T00:45:16.683Z,19.34
2018-06-07T00:46:16.685Z,19.46
2018-06-07T00:47:16.618Z,19.35
2018-06-07T00:48:16.571Z,19.32
2018-06-07T00:49:16.595Z,19.38
2018-06-07T00:50:16.546Z,19.38
2018-06-07T00:51:16.583Z,19.27
2018-06-07T00:52:16.490Z,19.10
2018-06-07T00:53:16.471Z,19.15
2018-06-07T00:54:16.456Z,19.16
2018-06-07T00:55:16.412Z,19.20
2018-06-07T00:56:16.389Z,19.20
2018-06-07T00:57:16.457Z,19.15
2018-06-07T00:58:16.354Z,19.20
2018-06-07T00:59:16.374Z,19.16
2018-06-07T01:00:16.310Z,19.06
2018-06-07T01:01:17.305Z,19.09
2018-06-07T01:02:16.261Z,19.02
2018-06-07T01:03:16.230Z,19.02
2018-06-07T01:04:16.219Z,19.01
2018-06-07T01:05:17.233Z,18.94
2018-06-07T01:06:16.171Z,18.94
2018-06-07T01:07:16.151Z,18.96
2018-06-07T01:08:16.144Z,18.97
2018-06-07T01:09:16.124Z,18.89
2018-06-07T01:10:16.138Z,18.89
2018-06-07T01:11:16.068Z,18.90
2018-06-07T01:12:16.067Z,18.94
2018-06-07T01:13:16.056Z,18.90
2018-06-07T01:14:16.002Z,18.94
2018-06-07T01:15:15.980Z,18.86
2018-06-07T01:16:15.988Z,18.82
2018-06-07T01:17:15.979Z,18.83
2018-06-07T01:18:15.918Z,18.76
2018-06-07T01:19:16.011Z,18.83
2018-06-07T01:20:15.873Z,18.83
2018-06-07T01:21:15.866Z,18.82
2018-06-07T01:22:15.839Z,18.78
2018-06-07T01:23:15.923Z,18.82
2018-06-07T01:24:15.767Z,18.84
2018-06-07T01:25:15.755Z,18.75
2018-06-07T01:26:15.729Z,18.82
2018-06-07T01:27:15.733Z,18.69
2018-06-07T01:28:15.679Z,18.76
2018-06-07T01:29:15.673Z,18.74
2018-06-07T01:30:15.649Z,18.71
2018-06-07T01:31:15.622Z,18.78
2018-06-07T01:32:15.599Z,18.72
2018-06-07T01:33:15.590Z,18.72
2018-06-07T01:34:15.553Z,18.69
2018-06-07T01:35:16.637Z,18.57
2018-06-07T01:36:15.503Z,18.66
2018-06-07T01:37:15.508Z,18.69
2018-06-07T01:38:15.465Z,18.68
2018-06-07T01:39:15.444Z,18.54
2018-06-07T01:40:15.425Z,18.62
2018-06-07T01:41:16.469Z,18.57
2018-06-07T01:42:15.368Z,18.62
2018-06-07T01:43:15.383Z,18.56
2018-06-07T01:44:16.362Z,18.60
2018-06-07T01:45:15.309Z,18.60
2018-06-07T01:46:15.295Z,18.62
2018-06-07T01:47:15.282Z,18.57
2018-06-07T01:48:15.241Z,18.53
2018-06-07T01:49:15.228Z,18.47
2018-06-07T01:50:17.250Z,18.44
2018-06-07T01:51:15.182Z,18.42
2018-06-07T01:52:15.145Z,18.44
2018-06-07T01:53:15.203Z,18.44
2018-06-07T01:54:15.126Z,18.42
2018-06-07T01:55:15.087Z,18.46
2018-06-07T01:56:15.113Z,18.44
2018-06-07T01:57:15.043Z,18.34
2018-06-07T01:58:15.036Z,18.35
2018-06-07T01:59:14.992Z,18.38
2018-06-07T02:00:14.974Z,18.34
2018-06-07T02:01:15.074Z,18.31
2018-06-07T02:02:14.933Z,18.31
2018-06-07T02:03:14.900Z,18.36
2018-06-07T02:04:14.883Z,18.38
2018-06-07T02:05:14.874Z,18.34
2018-06-07T02:06:14.844Z,18.34
2018-06-07T02:07:14.816Z,18.34
2018-06-07T02:08:14.807Z,18.36
2018-06-07T02:09:14.806Z,18.32
2018-06-07T02:10:14.752Z,18.29
2018-06-07T02:11:14.836Z,18.28
2018-06-07T02:12:14.721Z,18.35
2018-06-07T02:13:14.726Z,18.29
2018-06-07T02:14:14.667Z,18.25
2018-06-07T02:15:14.653Z,18.34
2018-06-07T02:16:14.626Z,18.35
2018-06-07T02:17:14.610Z,18.36
2018-06-07T02:18:14.620Z,18.26
2018-06-07T02:19:14.561Z,18.20
2018-06-07T02:20:14.527Z,18.29
2018-06-07T02:21:14.507Z,18.29
2018-06-07T02:22:14.587Z,18.26
2018-06-07T02:23:14.454Z,18.17
2018-06-07T02:24:14.448Z,18.28
2018-06-07T02:25:14.417Z,18.26
2018-06-07T02:26:14.400Z,18.34
2018-06-07T02:27:14.390Z,18.39
2018-06-07T02:28:14.342Z,18.35
2018-06-07T02:29:14.326Z,18.29
2018-06-07T02:30:14.316Z,18.31
2018-06-07T02:31:14.344Z,18.38
2018-06-07T02:32:14.259Z,18.21
2018-06-07T02:33:14.378Z,18.23
2018-06-07T02:34:14.226Z,18.29
2018-06-07T02:35:14.193Z,18.16
2018-06-07T02:36:14.173Z,18.11
2018-06-07T02:37:14.168Z,18.20
2018-06-07T02:38:14.150Z,18.13
2018-06-07T02:39:14.100Z,18.13
2018-06-07T02:40:14.207Z,18.09
2018-06-07T02:41:14.069Z,18.05
2018-06-07T02:42:14.114Z,18.04
2018-06-07T02:43:14.018Z,18.04
2018-06-07T02:44:14.011Z,18.04
2018-06-07T02:45:13.956Z,18.07
2018-06-07T02:46:13.943Z,17.99
2018-06-07T02:47:13.924Z,17.95
2018-06-07T02:48:13.920Z,17.95
2018-06-07T02:49:13.893Z,17.99
2018-06-07T02:50:13.861Z,17.99
2018-06-07T02:51:13.832Z,18.01
2018-06-07T02:52:13.805Z,17.94
2018-06-07T02:53:13.778Z,17.99
2018-06-07T02:54:13.878Z,17.95
2018-06-07T02:55:13.756Z,17.94
2018-06-07T02:56:13.724Z,17.87
2018-06-07T02:57:13.717Z,17.89
2018-06-07T02:58:13.703Z,17.87
2018-06-07T02:59:13.649Z,17.83
2018-06-07T03:00:15.671Z,17.96
2018-06-07T03:01:13.608Z,17.77
2018-06-07T03:02:13.585Z,17.80
2018-06-07T03:03:13.580Z,17.83
2018-06-07T03:04:13.547Z,17.80
2018-06-07T03:05:13.537Z,17.74
2018-06-07T03:06:13.517Z,17.83
2018-06-07T03:07:13.556Z,17.81
2018-06-07T03:08:13.465Z,17.71
2018-06-07T03:09:13.431Z,17.71
2018-06-07T03:10:13.394Z,17.81
2018-06-07T03:11:13.390Z,17.63
2018-06-07T03:12:13.392Z,17.70
2018-06-07T03:13:13.342Z,17.70
2018-06-07T03:14:13.363Z,17.70
2018-06-07T03:15:13.294Z,17.71
2018-06-07T03:16:13.317Z,17.73
2018-06-07T03:17:13.241Z,17.68
2018-06-07T03:18:13.326Z,17.62
2018-06-07T03:19:13.202Z,17.74
2018-06-07T03:20:13.242Z,17.63
2018-06-07T03:21:13.201Z,17.65
2018-06-07T03:22:13.130Z,17.57
2018-06-07T03:23:13.112Z,17.54
2018-06-07T03:24:13.083Z,17.54
2018-06-07T03:25:13.062Z,17.58
2018-06-07T03:26:13.094Z,17.53
2018-06-07T03:27:13.013Z,17.49
2018-06-07T03:28:13.089Z,17.53
2018-06-07T03:29:12.974Z,17.55
2018-06-07T03:30:13.009Z,17.49
2018-06-07T03:31:12.935Z,17.47
2018-06-07T03:32:12.916Z,17.53
2018-06-07T03:33:12.971Z,17.54
2018-06-07T03:34:12.847Z,17.49
2018-06-07T03:35:12.932Z,17.54
2018-06-07T03:36:12.823Z,17.49
2018-06-07T03:37:12.828Z,17.57
2018-06-07T03:38:12.756Z,17.55
2018-06-07T03:39:12.751Z,17.51
2018-06-07T03:40:12.719Z,17.54
2018-06-07T03:41:12.709Z,17.49
2018-06-07T03:42:12.688Z,17.60
2018-06-07T03:43:12.665Z,17.47
2018-06-07T03:44:12.635Z,17.51
2018-06-07T03:45:12.699Z,17.58
2018-06-07T03:46:12.599Z,17.51
2018-06-07T03:47:12.622Z,17.54
2018-06-07T03:48:12.548Z,17.54
2018-06-07T04:02:14.897Z,17.60
2018-06-07T04:03:14.864Z,17.62
2018-06-07T04:04:14.874Z,17.65
2018-06-07T04:05:13.153Z,17.63
2018-06-07T04:06:14.331Z,17.70
2018-06-07T04:07:16.869Z,17.65
2018-06-07T04:08:13.104Z,17.70
2018-06-07T04:09:16.147Z,17.66
2018-06-07T04:10:14.994Z,17.65
2018-06-07T04:11:14.876Z,17.70
2018-06-07T04:12:13.039Z,17.70
2018-06-07T04:13:14.873Z,17.71
2018-06-07T04:14:14.871Z,17.68
2018-06-07T04:15:12.920Z,17.74
2018-06-07T04:16:12.960Z,17.68
2018-06-07T04:17:15.397Z,17.71
2018-06-07T04:18:12.865Z,17.73
2018-06-07T04:19:12.920Z,17.81
2018-06-07T04:20:12.823Z,17.79
2018-06-07T04:21:12.858Z,17.84
2018-06-07T04:22:12.779Z,17.79
2018-06-07T04:23:12.844Z,17.84
2018-06-07T04:24:12.734Z,17.94
2018-06-07T04:25:12.756Z,17.95
2018-06-07T04:26:12.687Z,17.94
2018-06-07T04:27:12.682Z,17.98
2018-06-07T04:28:12.664Z,17.96
2018-06-07T04:29:12.694Z,17.96
2018-06-07T04:30:12.583Z,18.04
2018-06-07T04:31:12.581Z,18.04
2018-06-07T04:32:12.608Z,18.13
2018-06-07T04:33:12.536Z,18.13
2018-06-07T04:34:12.500Z,18.13
2018-06-07T04:35:12.530Z,18.11
2018-06-07T04:36:12.457Z,18.20
2018-06-07T04:37:12.428Z,18.21
2018-06-07T04:38:12.435Z,18.28
2018-06-07T04:39:12.403Z,18.29
2018-06-07T04:40:12.359Z,18.38
2018-06-07T04:41:12.340Z,18.44
2018-06-07T04:42:12.330Z,18.46
2018-06-07T04:43:12.310Z,18.64
2018-06-07T04:44:12.283Z,18.69
2018-06-07T04:45:12.381Z,18.74
2018-06-07T04:46:12.297Z,18.84
2018-06-07T04:47:12.205Z,18.90
2018-06-07T04:48:13.228Z,18.97
2018-06-07T04:49:12.147Z,19.10
2018-06-07T04:50:12.143Z,19.21
2018-06-07T04:51:12.146Z,19.20
2018-06-07T04:52:12.091Z,19.34
2018-06-07T04:53:12.099Z,19.31
2018-06-07T04:54:12.043Z,19.35
2018-06-07T04:55:12.028Z,19.34
2018-06-07T04:56:11.987Z,19.32
2018-06-07T04:57:11.983Z,19.34
2018-06-07T04:58:11.949Z,19.31
2018-06-07T04:59:11.932Z,19.30
2018-06-07T05:00:11.988Z,19.24
2018-06-07T05:01:11.895Z,19.15
2018-06-07T05:02:11.859Z,19.20
2018-06-07T05:03:11.840Z,19.15
2018-06-07T05:04:11.808Z,19.17
2018-06-07T05:05:11.788Z,19.13
2018-06-07T05:06:11.772Z,19.16
2018-06-07T05:07:11.764Z,19.23
2018-06-07T05:08:11.725Z,19.24
2018-06-07T05:09:11.691Z,19.35
2018-06-07T05:10:11.747Z,19.52
2018-06-07T05:11:11.648Z,19.62
2018-06-07T05:12:11.643Z,19.64
2018-06-07T05:13:11.629Z,19.72
2018-06-07T05:14:11.585Z,19.85
2018-06-07T05:15:11.549Z,19.89
2018-06-07T05:16:11.541Z,20.01
2018-06-07T05:17:11.537Z,20.07
2018-06-07T05:18:11.545Z,20.16
2018-06-07T06:12:22.353Z,21.64
2018-06-07T06:13:22.310Z,21.68
2018-06-07T06:14:22.294Z,21.85
2018-06-07T06:15:23.310Z,21.74
2018-06-07T06:16:22.265Z,21.58
2018-06-07T06:17:22.271Z,21.59
2018-06-07T06:18:22.193Z,21.66
2018-06-07T06:19:23.214Z,21.56
2018-06-07T06:20:22.138Z,21.73
2018-06-07T06:21:22.145Z,21.71
2018-06-07T06:22:22.194Z,21.85
2018-06-07T06:23:22.090Z,21.79
2018-06-07T06:24:22.288Z,21.90
2018-06-07T06:25:22.025Z,21.98
2018-06-07T06:26:21.993Z,22.17
2018-06-07T06:27:21.983Z,22.12
2018-06-07T06:28:21.954Z,22.19
2018-06-07T06:29:21.960Z,22.29
2018-06-07T06:43:15.284Z,22.39
2018-06-07T06:44:12.605Z,22.42
2018-06-07T06:45:12.569Z,22.41
2018-06-07T06:46:12.582Z,22.41
2018-06-07T06:47:12.556Z,22.44
2018-06-07T06:48:12.554Z,22.46
2018-06-07T06:49:12.540Z,22.49
2018-06-07T06:50:12.471Z,22.60
2018-06-07T06:51:12.451Z,22.63
2018-06-07T06:52:12.425Z,22.75
2018-06-07T06:53:12.403Z,22.70
2018-06-07T06:54:12.467Z,22.72
2018-06-07T06:55:12.381Z,22.79
2018-06-07T06:56:12.340Z,22.79
2018-06-07T06:57:12.310Z,22.88
2018-06-07T06:58:12.316Z,22.91
2018-06-07T06:59:12.365Z,22.88
2018-06-07T07:00:12.305Z,22.97
2018-06-07T07:01:12.290Z,23.00
2018-06-07T07:02:12.306Z,22.96
2018-06-07T07:03:12.181Z,22.91
2018-06-07T07:04:12.160Z,22.93
2018-06-07T07:05:12.233Z,22.93
2018-06-07T07:06:12.108Z,23.12
2018-06-07T07:07:12.111Z,23.04
2018-06-07T07:08:12.055Z,23.07
2018-06-07T07:09:12.154Z,23.01
2018-06-07T07:10:12.026Z,23.14
2018-06-07T07:11:12.054Z,23.14
2018-06-07T07:12:11.982Z,23.18
2018-06-07T07:13:11.966Z,23.19
2018-06-07T07:14:11.934Z,84.01
2018-06-07T07:15:11.982Z,23.25
2018-06-07T07:16:11.908Z,23.31
2018-06-07T07:17:11.893Z,23.41
2018-06-07T07:18:11.830Z,23.45
2018-06-07T07:19:11.971Z,23.57
2018-06-07T07:20:11.782Z,23.59
2018-06-07T07:21:11.809Z,23.56
2018-06-07T07:22:11.896Z,23.56
2018-06-07T07:23:11.854Z,23.67
2018-06-07T07:24:11.726Z,23.54
2018-06-07T07:25:11.739Z,23.56
2018-06-07T07:26:11.632Z,23.60
2018-06-07T07:27:11.631Z,23.59
2018-06-07T07:28:11.599Z,23.57
2018-06-07T07:29:11.658Z,23.60
2018-06-07T07:30:11.563Z,23.67
2018-06-07T07:31:11.541Z,23.69
2018-06-07T07:32:11.514Z,23.74
2018-06-07T07:33:11.494Z,23.81
2018-06-07T07:34:11.486Z,81.04
2018-06-07T07:35:11.432Z,23.94
2018-06-07T07:36:11.467Z,24.02
2018-06-07T07:37:11.391Z,23.94
2018-06-07T07:38:11.390Z,24.09
2018-06-07T07:39:11.421Z,24.09
2018-06-07T07:40:11.350Z,24.09
2018-06-07T07:41:11.318Z,24.23
2018-06-07T07:42:11.282Z,24.27
2018-06-07T07:43:11.272Z,24.27
2018-06-07T07:44:11.246Z,24.31
2018-06-07T07:45:11.218Z,24.29
2018-06-07T07:46:11.265Z,24.30
2018-06-07T07:47:11.165Z,24.19
2018-06-07T07:48:11.149Z,24.23
2018-06-07T07:49:11.115Z,24.33
2018-06-07T07:50:11.107Z,24.37
2018-06-07T07:51:11.095Z,24.30
2018-06-07T07:52:11.054Z,24.31
2018-06-07T07:53:11.130Z,24.44
2018-06-07T07:54:10.999Z,24.48
2018-06-07T07:55:11.014Z,24.60
2018-06-07T07:56:10.961Z,24.63
2018-06-07T07:57:10.942Z,24.59
2018-06-07T07:58:10.894Z,24.66
2018-06-07T07:59:10.919Z,24.75
2018-06-07T08:00:10.873Z,24.77
2018-06-07T08:01:11.931Z,24.84
2018-06-07T08:02:10.819Z,24.82
2018-06-07T08:03:10.786Z,24.94
2018-06-07T08:04:10.770Z,24.86
2018-06-07T08:05:11.911Z,24.92
2018-06-07T08:06:10.747Z,24.97
2018-06-07T08:07:10.812Z,25.01
2018-06-07T08:08:10.740Z,24.94
2018-06-07T08:09:10.783Z,24.94
2018-06-07T08:10:10.641Z,25.05
2018-06-07T08:11:10.629Z,25.07
2018-06-07T08:12:10.580Z,25.04
2018-06-07T08:13:10.563Z,25.02
2018-06-07T08:14:10.551Z,25.07
2018-06-07T08:15:10.540Z,25.11
2018-06-07T08:16:10.612Z,25.11
2018-06-07T08:17:10.479Z,25.23
2018-06-07T08:18:10.515Z,25.16
2018-06-07T08:19:10.450Z,25.17
2018-06-07T08:20:10.405Z,25.27
2018-06-07T08:21:10.391Z,25.30
2018-06-07T08:22:10.353Z,25.36
2018-06-07T08:23:10.431Z,25.44
2018-06-07T08:24:10.328Z,25.38
2018-06-07T08:25:10.289Z,25.30
2018-06-07T08:40:07.380Z,25.85
2018-06-07T08:41:07.316Z,25.85
2018-06-07T08:43:00.570Z,26.03
2018-06-07T08:44:00.595Z,26.08
2018-06-07T08:45:00.496Z,26.21
2018-06-07T08:46:00.473Z,26.16
2018-06-07T08:47:00.457Z,26.20
2018-06-07T08:48:00.440Z,26.20
2018-06-07T08:49:00.420Z,26.20
2018-06-07T08:50:00.386Z,26.36
2018-06-07T08:51:00.376Z,26.36
2018-06-07T08:52:00.344Z,26.39
2018-06-07T08:53:00.319Z,26.42
2018-06-07T08:54:00.351Z,26.51
2018-06-07T08:55:00.314Z,26.59
2018-06-07T08:56:00.365Z,26.56
2018-06-07T08:57:00.239Z,26.66
2018-06-07T08:58:00.217Z,26.60
2018-06-07T08:59:00.236Z,26.71
2018-06-07T09:00:00.291Z,26.76
2018-06-07T09:01:00.170Z,26.78
2018-06-07T09:02:00.208Z,26.79
2018-06-07T09:03:00.136Z,26.76
2018-06-07T09:04:00.143Z,26.81
2018-06-07T09:05:00.087Z,26.88
2018-06-07T09:06:00.141Z,26.88
2018-06-07T09:07:00.066Z,27.02
2018-06-07T09:08:00.057Z,27.12
2018-06-07T09:08:59.979Z,27.21
2018-06-07T09:10:00.069Z,27.31
2018-06-07T09:10:59.939Z,27.35
2018-06-07T09:11:59.979Z,27.30
2018-06-07T09:12:59.883Z,27.35
2018-06-07T09:13:59.888Z,27.35
2018-06-07T09:14:59.868Z,27.31
2018-06-07T09:15:59.915Z,27.23
2018-06-07T09:16:59.823Z,27.31
2018-06-07T09:17:59.814Z,27.27
2018-06-07T09:18:59.780Z,27.30
2018-06-07T09:19:59.817Z,27.34
2018-06-07T09:20:59.708Z,27.35
2018-06-07T09:22:00.760Z,27.40
2018-06-07T09:22:59.672Z,27.28
2018-06-07T09:23:59.788Z,27.39
2018-06-07T09:24:59.627Z,27.48
2018-06-07T09:25:59.695Z,27.49
2018-06-07T09:26:59.605Z,27.61
2018-06-07T09:27:59.593Z,27.46
2018-06-07T09:28:59.636Z,27.59
2018-06-07T09:29:59.532Z,27.53
2018-06-07T09:30:59.671Z,27.39
2018-06-07T09:31:59.486Z,27.35
2018-06-07T09:32:59.499Z,27.50
2018-06-07T09:33:59.443Z,27.46
2018-06-07T09:34:59.505Z,27.52
2018-06-07T09:35:59.444Z,27.40
2018-06-07T09:36:59.387Z,27.31
2018-06-07T09:37:59.357Z,27.52
2018-06-07T09:38:59.414Z,27.59
2018-06-07T09:39:59.317Z,27.74
2018-06-07T09:56:36.415Z,28.58
2018-06-07T09:57:36.357Z,28.62
2018-06-07T09:58:36.343Z,28.74
2018-06-07T09:59:36.326Z,28.89
2018-06-07T10:00:36.298Z,29.05
2018-06-07T10:01:36.276Z,29.00
2018-06-07T10:02:36.256Z,28.98
2018-06-07T10:03:36.275Z,28.98
2018-06-07T10:04:36.231Z,29.14
2018-06-07T10:05:36.192Z,29.32
2018-06-07T10:06:36.170Z,28.62
2018-06-07T10:07:36.146Z,28.23
2018-06-07T10:08:36.141Z,28.18
2018-06-07T10:09:36.114Z,28.23
2018-06-07T10:10:36.114Z,28.50
2018-06-07T10:11:36.059Z,28.51
2018-06-07T10:12:36.055Z,28.51
2018-06-07T10:13:36.024Z,28.52
2018-06-07T10:14:36.025Z,28.65
2018-06-07T10:15:35.984Z,28.74
2018-06-07T10:16:35.972Z,28.92
2018-06-07T10:17:35.942Z,29.03
2018-06-07T10:18:35.948Z,29.23
2018-06-07T10:19:35.895Z,29.29
2018-06-07T10:20:35.877Z,29.39
2018-06-07T10:21:35.863Z,29.57
2018-06-07T10:22:35.873Z,29.58
2018-06-07T10:23:35.945Z,29.70
2018-06-07T10:24:35.796Z,29.70
2018-06-07T10:25:35.786Z,29.69
2018-06-07T10:26:35.771Z,29.69
2018-06-07T10:27:35.746Z,29.79
2018-06-07T10:28:35.721Z,29.64
2018-06-07T10:29:35.723Z,29.42
2018-06-07T10:30:35.682Z,29.12
2018-06-07T10:31:35.661Z,29.12
2018-06-07T10:32:35.630Z,29.07
2018-06-07T10:33:35.668Z,28.91
2018-06-07T10:34:35.630Z,28.85
2018-06-07T10:35:35.673Z,28.89
2018-06-07T10:36:35.571Z,29.03
2018-06-07T10:37:35.589Z,29.23
2018-06-07T10:38:35.679Z,29.39
2018-06-07T10:39:35.636Z,29.48
2018-06-07T10:40:35.525Z,29.51
2018-06-07T10:41:35.553Z,29.62
2018-06-07T10:42:35.429Z,29.67
2018-06-07T10:43:35.496Z,29.85
2018-06-07T10:44:35.377Z,29.69
2018-06-07T10:45:36.412Z,29.67
2018-06-07T10:46:35.343Z,29.81
2018-06-07T10:47:35.429Z,29.88
2018-06-07T10:48:35.286Z,29.99
2018-06-07T10:49:35.294Z,30.01
2018-06-07T10:50:35.253Z,30.06
2018-06-07T10:51:35.317Z,30.06
2018-06-07T10:52:35.220Z,30.16
2018-06-07T10:53:35.220Z,30.18
2018-06-07T10:54:35.159Z,30.19
2018-06-07T10:55:35.140Z,30.22
2018-06-07T10:56:35.118Z,30.01
2018-06-07T10:57:35.098Z,29.89
2018-06-07T10:58:35.143Z,29.89
2018-06-07T10:59:35.055Z,30.04
2018-06-07T11:00:35.073Z,30.11
2018-06-07T11:01:35.031Z,30.01
2018-06-07T11:02:35.089Z,30.03
2018-06-07T11:03:34.972Z,30.11
2018-06-07T11:04:36.014Z,30.13
2018-06-07T11:05:34.951Z,30.18
2018-06-07T11:06:35.120Z,30.30
2018-06-07T11:07:34.942Z,30.36
2018-06-07T11:08:35.019Z,30.49
2018-06-07T11:09:34.878Z,30.38
2018-06-07T11:10:35.042Z,29.94
2018-06-07T11:11:34.834Z,29.70
2018-06-07T11:12:34.940Z,29.48
2018-06-07T11:13:34.808Z,29.44
2018-06-07T11:14:34.971Z,29.37
2018-06-07T11:15:34.747Z,29.36
2018-06-07T11:16:34.754Z,29.44
2018-06-07T11:17:34.722Z,29.49
2018-06-07T11:18:34.818Z,29.69
2018-06-07T11:19:34.675Z,29.85
2018-06-07T11:20:34.648Z,30.06
2018-06-07T11:21:34.629Z,30.22
2018-06-07T11:22:34.641Z,30.49
2018-06-07T11:23:34.622Z,30.63
2018-06-07T11:24:34.723Z,30.70
2018-06-07T11:25:34.713Z,30.79
2018-06-07T11:26:34.640Z,30.72
2018-06-07T11:27:34.577Z,30.57
2018-06-07T11:28:34.572Z,30.29
2018-06-07T11:29:34.457Z,30.15
2018-06-07T11:30:34.548Z,30.18
2018-06-07T11:31:34.436Z,30.23
2018-06-07T11:32:36.540Z,30.38
2018-06-07T11:33:34.380Z,30.56
2018-06-07T11:34:34.380Z,30.79
2018-06-07T11:35:34.355Z,30.85
2018-06-07T11:36:34.354Z,31.03
2018-06-07T11:37:34.326Z,30.91
2018-06-07T11:38:34.502Z,30.70
2018-06-07T11:39:34.254Z,30.23
2018-06-07T11:40:35.460Z,30.18
2018-06-07T11:41:34.219Z,30.18
2018-06-07T11:42:34.323Z,30.32
2018-06-07T11:43:34.186Z,30.61
2018-06-07T11:44:34.309Z,30.59
2018-06-07T11:45:34.136Z,30.56
2018-06-07T11:46:34.242Z,30.72
2018-06-07T11:47:34.098Z,30.38
2018-06-07T11:48:34.144Z,30.56
2018-06-07T11:49:34.047Z,30.64
2018-06-07T11:50:34.156Z,30.82
2018-06-07T11:51:34.029Z,30.96
2018-06-07T11:52:35.070Z,31.18
2018-06-07T11:53:33.979Z,31.32
2018-06-07T11:54:34.080Z,31.46
2018-06-07T11:55:33.945Z,31.47
2018-06-07T11:56:33.990Z,31.16
2018-06-07T11:57:33.891Z,31.31
2018-06-07T11:58:34.914Z,31.35
2018-06-07T11:59:33.890Z,31.46
2018-06-07T12:00:33.905Z,31.53
2018-06-07T12:01:33.807Z,31.53
2018-06-07T12:02:33.814Z,31.31
2018-06-07T12:03:33.774Z,31.12
2018-06-07T12:04:33.824Z,31.03
2018-06-07T12:05:33.747Z,31.05
2018-06-07T12:06:33.743Z,31.19
2018-06-07T12:07:33.718Z,31.25
2018-06-07T12:08:34.834Z,31.31
2018-06-07T12:09:33.674Z,31.25
2018-06-07T12:10:33.797Z,31.34
2018-06-07T12:11:33.624Z,31.59
2018-06-07T12:12:33.817Z,31.64
2018-06-07T12:13:33.577Z,31.52
2018-06-07T12:14:35.661Z,31.59
2018-06-07T12:15:33.544Z,31.54
2018-06-07T12:16:33.597Z,31.56
2018-06-07T12:17:33.495Z,31.19
2018-06-07T12:18:33.541Z,30.78
2018-06-07T12:19:33.470Z,30.79
2018-06-07T12:20:34.453Z,30.67
2018-06-07T12:21:33.417Z,30.61
2018-06-07T12:22:33.421Z,30.64
2018-06-07T12:23:33.401Z,30.66
2018-06-07T12:24:33.461Z,30.81
2018-06-07T12:25:33.371Z,31.03
2018-06-07T12:30:25.580Z,31.65
2018-06-07T12:31:23.825Z,31.90
2018-06-07T12:32:23.707Z,31.85
2018-06-07T12:33:23.845Z,32.03
2018-06-07T12:34:23.669Z,32.14
2018-06-07T12:35:23.734Z,31.97
2018-06-07T12:36:23.638Z,31.95
2018-06-07T12:37:23.760Z,32.02
2018-06-07T12:38:23.592Z,32.03
2018-06-07T12:39:23.698Z,32.06
2018-06-07T12:40:23.674Z,32.13
2018-06-07T12:41:23.686Z,32.14
2018-06-07T12:42:23.556Z,31.90
2018-06-07T12:43:23.589Z,31.62
2018-06-07T12:44:23.474Z,31.42
2018-06-07T12:45:23.613Z,31.31
2018-06-07T12:46:23.434Z,31.19
2018-06-07T12:47:23.520Z,30.93
2018-06-07T12:48:23.402Z,30.78
2018-06-07T12:49:23.538Z,30.70
2018-06-07T12:50:23.374Z,30.48
2018-06-07T12:51:23.448Z,30.68
2018-06-07T12:52:23.344Z,30.83
2018-06-07T12:53:23.476Z,30.78
2018-06-07T12:54:23.294Z,30.60
2018-06-07T12:55:24.411Z,30.51
2018-06-07T12:56:23.248Z,30.48
2018-06-07T12:57:23.468Z,30.61
2018-06-07T12:58:23.207Z,30.75
2018-06-07T12:59:23.295Z,30.91
2018-06-07T13:00:23.179Z,30.90
2018-06-07T13:53:38.666Z,30.91
2018-06-07T14:03:50.358Z,30.30
2018-06-07T14:04:47.351Z,30.26
2018-06-07T14:05:47.352Z,30.38
2018-06-07T14:06:47.337Z,30.40
2018-06-07T14:07:47.293Z,30.56
2018-06-07T14:08:47.267Z,30.70
2018-06-07T14:09:47.246Z,30.67
2018-06-07T14:10:48.266Z,30.68
2018-06-07T14:11:47.212Z,30.72
2018-06-07T14:12:47.180Z,30.75
2018-06-07T14:13:47.180Z,30.76
2018-06-07T14:14:47.148Z,30.68
2018-06-07T14:15:47.201Z,30.78
2018-06-07T14:16:47.114Z,30.57
2018-06-07T14:17:47.105Z,30.75
2018-06-07T14:18:47.077Z,30.78
2018-06-07T14:44:04.923Z,31.09
2018-06-07T14:45:04.864Z,31.30
2018-06-07T14:46:04.522Z,31.40
2018-06-07T14:47:04.747Z,31.32
2018-06-07T14:48:04.424Z,31.18
2018-06-07T14:49:05.615Z,31.13
2018-06-07T14:50:04.391Z,31.12
2018-06-07T14:51:04.501Z,31.04
2018-06-07T14:52:04.382Z,30.86
2018-06-07T14:53:04.554Z,30.91
2018-06-07T14:54:05.461Z,30.94
2018-06-07T14:55:04.301Z,31.00
2018-06-07T14:56:04.313Z,30.93
2018-06-07T14:57:04.495Z,30.90
2018-06-07T14:58:04.350Z,30.85
2018-06-07T14:59:04.216Z,30.85
2018-06-07T15:00:04.252Z,30.73
2018-06-07T15:01:04.199Z,30.76
2018-06-07T15:02:04.301Z,30.91
2018-06-07T15:03:04.158Z,30.85
2018-06-07T15:04:04.189Z,30.98
2018-06-07T15:05:04.131Z,31.07
2018-06-07T15:06:04.214Z,31.03
2018-06-07T15:07:04.082Z,31.12
2018-06-07T15:08:04.139Z,31.04
2018-06-07T15:09:04.055Z,30.91
2018-06-07T15:10:04.170Z,30.94
2018-06-07T15:11:04.004Z,30.81
2018-06-07T15:12:04.056Z,30.85
2018-06-07T15:13:03.954Z,30.88
2018-06-07T15:14:04.168Z,30.81
2018-06-07T15:15:03.929Z,30.79
2018-06-07T15:16:03.973Z,30.82
2018-06-07T15:17:03.894Z,30.76
2018-06-07T15:18:04.453Z,30.79
2018-06-07T15:19:03.872Z,35.09
2018-06-07T15:20:04.330Z,30.79
2018-06-07T15:21:03.972Z,30.68
2018-06-07T15:22:03.798Z,30.60
2018-06-07T15:23:24.869Z,30.56
2018-06-07T15:24:03.775Z,30.75
2018-06-07T15:25:03.819Z,30.72
2018-06-07T15:26:06.404Z,30.72
2018-06-07T15:27:16.437Z,30.76
2018-06-07T15:28:03.702Z,30.76
2018-06-07T16:38:30.717Z,31.01
2018-06-07T16:39:27.869Z,31.09
2018-06-07T16:40:27.897Z,30.90
2018-06-07T16:41:28.924Z,30.85
2018-06-07T16:42:27.790Z,30.96
2018-06-07T16:43:27.796Z,30.85
2018-06-07T16:44:27.785Z,30.94
2018-06-07T16:45:27.811Z,30.86
2018-06-07T16:46:27.737Z,30.85
2018-06-07T16:47:27.718Z,30.82
2018-06-07T16:48:27.704Z,30.53
2018-06-07T16:49:28.758Z,30.56
2018-06-07T16:50:27.672Z,30.40
2018-06-07T16:51:27.687Z,30.19
2018-06-07T16:52:27.604Z,29.99
2018-06-07T16:53:27.615Z,29.67
2018-06-07T16:54:27.686Z,29.37
2018-06-07T16:55:27.565Z,29.25
2018-06-07T16:56:27.592Z,29.10
2018-06-07T16:57:27.518Z,29.17
2018-06-07T16:58:27.599Z,29.08
2018-06-07T16:59:27.499Z,28.98
2018-06-07T17:00:27.503Z,29.02
2018-06-07T17:01:27.430Z,29.00
2018-06-07T17:02:27.419Z,28.89
2018-06-07T17:03:27.427Z,28.82
2018-06-07T17:04:27.395Z,28.73
2018-06-07T17:05:27.364Z,28.64
2018-06-07T17:06:27.341Z,28.33
2018-06-07T17:07:27.328Z,28.33
2018-06-07T17:08:27.311Z,28.36
2018-06-07T17:09:27.339Z,28.36
2018-06-07T17:10:27.305Z,28.35
2018-06-07T17:11:27.254Z,28.38
2018-06-07T17:12:27.242Z,28.52
2018-06-07T17:13:27.243Z,28.46
2018-06-07T17:14:27.299Z,28.55
2018-06-07T17:15:27.201Z,28.57
2018-06-07T17:16:27.246Z,28.40
2018-06-07T17:17:27.150Z,28.46
2018-06-07T17:18:27.545Z,28.39
2018-06-07T17:19:27.113Z,28.35
2018-06-07T17:20:27.176Z,28.48
2018-06-07T17:21:27.105Z,28.54
2018-06-07T17:22:27.182Z,28.65